sensor_id;sensor_type;location;lat;lon;timestamp;P1;durP1;ratioP1;P2;durP2;ratioP2
11183;SDS011;5648;43.628;22.684;2022-10-31T00:01:31;5.72;;;2.22;;
11183;SDS011;5648;43.628;22.684;2022-10-31T00:04:01;6.35;;;2.20;;
11183;SDS011;5648;43.628;22.684;2022-10-31T00:06:27;7.07;;;2.13;;
11183;SDS011;5648;43.628;22.684;2022-10-31T00:08:54;2.67;;;2.20;;
11183;SDS011;5648;43.628;22.684;2022-10-31T00:11:27;2.88;;;2.10;;
11183;SDS011;5648;43.628;22.684;2022-10-31T00:13:52;5.97;;;2.20;;
11183;SDS011;5648;43.628;22.684;2022-10-31T00:16:19;2.55;;;1.90;;
11183;SDS011;5648;43.628;22.684;2022-10-31T00:18:49;5.68;;;2.47;;
11183;SDS011;5648;43.628;22.684;2022-10-31T00:21:16;6.72;;;1.90;;
11183;SDS011;5648;43.628;22.684;2022-10-31T00:23:41;3.03;;;1.90;;
11183;SDS011;5648;43.628;22.684;2022-10-31T00:26:07;4.05;;;2.20;;
11183;SDS011;5648;43.628;22.684;2022-10-31T00:28:33;3.25;;;2.03;;
11183;SDS011;5648;43.628;22.684;2022-10-31T00:31:02;4.65;;;2.10;;
11183;SDS011;5648;43.628;22.684;2022-10-31T00:33:32;3.05;;;2.13;;
11183;SDS011;5648;43.628;22.684;2022-10-31T00:35:58;2.88;;;1.70;;
11183;SDS011;5648;43.628;22.684;2022-10-31T00:38:24;5.47;;;2.28;;
11183;SDS011;5648;43.628;22.684;2022-10-31T00:40:49;6.72;;;2.45;;
11183;SDS011;5648;43.628;22.684;2022-10-31T00:43:15;4.15;;;1.92;;
11183;SDS011;5648;43.628;22.684;2022-10-31T00:45:41;5.45;;;2.25;;
11183;SDS011;5648;43.628;22.684;2022-10-31T00:48:07;5.68;;;2.30;;
11183;SDS011;5648;43.628;22.684;2022-10-31T00:50:33;5.10;;;2.30;;
11183;SDS011;5648;43.628;22.684;2022-10-31T00:52:58;6.65;;;2.10;;
11183;SDS011;5648;43.628;22.684;2022-10-31T00:55:24;3.88;;;2.00;;
11183;SDS011;5648;43.628;22.684;2022-10-31T00:57:49;2.70;;;2.20;;
11183;SDS011;5648;43.628;22.684;2022-10-31T01:00:15;5.30;;;2.20;;
11183;SDS011;5648;43.628;22.684;2022-10-31T01:02:41;3.80;;;2.15;;
11183;SDS011;5648;43.628;22.684;2022-10-31T01:05:07;5.28;;;1.98;;
11183;SDS011;5648;43.628;22.684;2022-10-31T01:07:35;4.93;;;2.10;;
11183;SDS011;5648;43.628;22.684;2022-10-31T01:10:01;4.75;;;2.05;;
11183;SDS011;5648;43.628;22.684;2022-10-31T01:12:27;3.63;;;1.90;;
11183;SDS011;5648;43.628;22.684;2022-10-31T01:14:53;2.47;;;1.90;;
11183;SDS011;5648;43.628;22.684;2022-10-31T01:17:18;5.82;;;2.03;;
11183;SDS011;5648;43.628;22.684;2022-10-31T01:19:44;4.13;;;2.08;;
11183;SDS011;5648;43.628;22.684;2022-10-31T01:22:10;2.85;;;1.67;;
11183;SDS011;5648;43.628;22.684;2022-10-31T01:24:35;4.63;;;1.95;;
11183;SDS011;5648;43.628;22.684;2022-10-31T01:27:01;4.10;;;2.47;;
11183;SDS011;5648;43.628;22.684;2022-10-31T01:29:27;8.52;;;1.90;;
11183;SDS011;5648;43.628;22.684;2022-10-31T01:31:52;4.55;;;1.67;;
11183;SDS011;5648;43.628;22.684;2022-10-31T01:34:18;2.88;;;1.60;;
11183;SDS011;5648;43.628;22.684;2022-10-31T01:36:44;6.25;;;2.58;;
11183;SDS011;5648;43.628;22.684;2022-10-31T01:39:13;2.90;;;1.80;;
11183;SDS011;5648;43.628;22.684;2022-10-31T01:41:44;3.08;;;1.90;;
11183;SDS011;5648;43.628;22.684;2022-10-31T01:46:53;4.00;;;2.03;;
11183;SDS011;5648;43.628;22.684;2022-10-31T01:49:34;4.35;;;2.33;;
11183;SDS011;5648;43.628;22.684;2022-10-31T01:52:19;4.20;;;2.28;;
11183;SDS011;5648;43.628;22.684;2022-10-31T01:54:58;2.50;;;1.70;;
11183;SDS011;5648;43.628;22.684;2022-10-31T01:57:28;4.80;;;2.03;;
11183;SDS011;5648;43.628;22.684;2022-10-31T01:59:58;3.83;;;2.20;;
11183;SDS011;5648;43.628;22.684;2022-10-31T02:02:27;5.70;;;2.08;;
11183;SDS011;5648;43.628;22.684;2022-10-31T02:04:55;2.35;;;1.80;;
11183;SDS011;5648;43.628;22.684;2022-10-31T02:07:25;2.83;;;1.98;;
11183;SDS011;5648;43.628;22.684;2022-10-31T02:09:56;4.20;;;2.10;;
11183;SDS011;5648;43.628;22.684;2022-10-31T02:12:22;4.65;;;2.25;;
11183;SDS011;5648;43.628;22.684;2022-10-31T02:14:48;7.78;;;2.20;;
11183;SDS011;5648;43.628;22.684;2022-10-31T02:17:13;3.20;;;2.13;;
11183;SDS011;5648;43.628;22.684;2022-10-31T02:38:14;5.28;;;2.08;;
11183;SDS011;5648;43.628;22.684;2022-10-31T02:40:26;3.53;;;2.00;;
11183;SDS011;5648;43.628;22.684;2022-10-31T02:43:02;5.72;;;1.88;;
11183;SDS011;5648;43.628;22.684;2022-10-31T02:45:41;4.32;;;1.85;;
11183;SDS011;5648;43.628;22.684;2022-10-31T02:48:30;5.55;;;2.00;;
11183;SDS011;5648;43.628;22.684;2022-10-31T02:51:00;4.20;;;1.85;;
11183;SDS011;5648;43.628;22.684;2022-10-31T02:53:31;1.60;;;1.50;;
11183;SDS011;5648;43.628;22.684;2022-10-31T02:56:02;5.15;;;2.00;;
11183;SDS011;5648;43.628;22.684;2022-10-31T02:58:33;4.80;;;2.05;;
11183;SDS011;5648;43.628;22.684;2022-10-31T03:06:45;4.72;;;2.05;;
11183;SDS011;5648;43.628;22.684;2022-10-31T03:09:34;3.72;;;2.03;;
11183;SDS011;5648;43.628;22.684;2022-10-31T03:12:22;5.38;;;2.33;;
11183;SDS011;5648;43.628;22.684;2022-10-31T03:20:41;6.03;;;2.30;;
11183;SDS011;5648;43.628;22.684;2022-10-31T03:23:13;4.57;;;2.20;;
11183;SDS011;5648;43.628;22.684;2022-10-31T03:25:41;2.25;;;2.03;;
11183;SDS011;5648;43.628;22.684;2022-10-31T03:28:08;3.95;;;2.20;;
11183;SDS011;5648;43.628;22.684;2022-10-31T03:30:37;4.53;;;1.88;;
11183;SDS011;5648;43.628;22.684;2022-10-31T03:33:07;4.28;;;2.05;;
11183;SDS011;5648;43.628;22.684;2022-10-31T03:35:39;3.75;;;2.00;;
11183;SDS011;5648;43.628;22.684;2022-10-31T03:38:09;3.33;;;2.40;;
11183;SDS011;5648;43.628;22.684;2022-10-31T03:40:36;2.80;;;1.52;;
11183;SDS011;5648;43.628;22.684;2022-10-31T03:43:07;2.30;;;1.73;;
11183;SDS011;5648;43.628;22.684;2022-10-31T03:45:40;3.97;;;2.22;;
11183;SDS011;5648;43.628;22.684;2022-10-31T03:48:09;1.85;;;1.58;;
11183;SDS011;5648;43.628;22.684;2022-10-31T03:51:19;2.88;;;1.85;;
11183;SDS011;5648;43.628;22.684;2022-10-31T03:53:34;3.05;;;1.77;;
11183;SDS011;5648;43.628;22.684;2022-10-31T03:56:21;5.28;;;1.85;;
11183;SDS011;5648;43.628;22.684;2022-10-31T03:58:59;1.98;;;1.70;;
11183;SDS011;5648;43.628;22.684;2022-10-31T04:01:29;3.08;;;1.80;;
11183;SDS011;5648;43.628;22.684;2022-10-31T04:03:57;6.63;;;2.05;;
11183;SDS011;5648;43.628;22.684;2022-10-31T04:06:23;3.53;;;2.10;;
11183;SDS011;5648;43.628;22.684;2022-10-31T04:08:51;2.42;;;1.67;;
11183;SDS011;5648;43.628;22.684;2022-10-31T04:11:23;2.95;;;1.90;;
11183;SDS011;5648;43.628;22.684;2022-10-31T04:13:53;5.95;;;1.90;;
11183;SDS011;5648;43.628;22.684;2022-10-31T04:16:20;3.70;;;2.17;;
11183;SDS011;5648;43.628;22.684;2022-10-31T04:18:48;4.30;;;2.00;;
11183;SDS011;5648;43.628;22.684;2022-10-31T04:21:13;4.07;;;1.77;;
11183;SDS011;5648;43.628;22.684;2022-10-31T04:23:39;3.88;;;2.15;;
11183;SDS011;5648;43.628;22.684;2022-10-31T04:26:04;4.13;;;2.03;;
11183;SDS011;5648;43.628;22.684;2022-10-31T04:28:30;5.82;;;2.00;;
11183;SDS011;5648;43.628;22.684;2022-10-31T04:30:57;3.33;;;1.67;;
11183;SDS011;5648;43.628;22.684;2022-10-31T04:33:23;2.92;;;1.48;;
11183;SDS011;5648;43.628;22.684;2022-10-31T04:35:48;6.72;;;2.35;;
11183;SDS011;5648;43.628;22.684;2022-10-31T04:38:14;2.22;;;1.60;;
11183;SDS011;5648;43.628;22.684;2022-10-31T04:40:39;5.35;;;1.90;;
11183;SDS011;5648;43.628;22.684;2022-10-31T04:43:05;4.40;;;1.80;;
11183;SDS011;5648;43.628;22.684;2022-10-31T04:45:31;3.08;;;1.50;;
11183;SDS011;5648;43.628;22.684;2022-10-31T04:47:56;2.70;;;1.77;;
11183;SDS011;5648;43.628;22.684;2022-10-31T04:50:21;5.32;;;1.85;;
11183;SDS011;5648;43.628;22.684;2022-10-31T04:52:47;2.75;;;1.50;;
11183;SDS011;5648;43.628;22.684;2022-10-31T04:55:13;4.18;;;1.90;;
11183;SDS011;5648;43.628;22.684;2022-10-31T04:57:42;4.50;;;2.10;;
11183;SDS011;5648;43.628;22.684;2022-10-31T05:00:09;3.83;;;2.05;;
11183;SDS011;5648;43.628;22.684;2022-10-31T05:03:09;9.55;;;2.22;;
11183;SDS011;5648;43.628;22.684;2022-10-31T05:05:29;8.25;;;2.08;;
11183;SDS011;5648;43.628;22.684;2022-10-31T05:07:55;6.35;;;1.90;;
11183;SDS011;5648;43.628;22.684;2022-10-31T05:10:22;3.70;;;2.03;;
11183;SDS011;5648;43.628;22.684;2022-10-31T05:12:53;6.78;;;1.70;;
11183;SDS011;5648;43.628;22.684;2022-10-31T05:15:21;3.42;;;1.85;;
11183;SDS011;5648;43.628;22.684;2022-10-31T05:17:48;5.75;;;2.03;;
11183;SDS011;5648;43.628;22.684;2022-10-31T05:20:14;2.53;;;1.83;;
11183;SDS011;5648;43.628;22.684;2022-10-31T05:22:44;3.40;;;2.25;;
11183;SDS011;5648;43.628;22.684;2022-10-31T05:25:11;6.85;;;2.28;;
11183;SDS011;5648;43.628;22.684;2022-10-31T05:27:43;5.38;;;1.90;;
11183;SDS011;5648;43.628;22.684;2022-10-31T05:30:11;13.68;;;2.78;;
11183;SDS011;5648;43.628;22.684;2022-10-31T05:32:42;5.03;;;1.90;;
11183;SDS011;5648;43.628;22.684;2022-10-31T05:35:10;5.03;;;1.95;;
11183;SDS011;5648;43.628;22.684;2022-10-31T05:37:37;6.10;;;2.20;;
11183;SDS011;5648;43.628;22.684;2022-10-31T05:40:03;4.22;;;2.33;;
11183;SDS011;5648;43.628;22.684;2022-10-31T05:42:30;6.85;;;1.85;;
11183;SDS011;5648;43.628;22.684;2022-10-31T05:44:56;4.78;;;1.92;;
11183;SDS011;5648;43.628;22.684;2022-10-31T05:47:21;9.30;;;2.22;;
11183;SDS011;5648;43.628;22.684;2022-10-31T05:49:47;5.53;;;2.70;;
11183;SDS011;5648;43.628;22.684;2022-10-31T05:52:12;11.25;;;2.70;;
11183;SDS011;5648;43.628;22.684;2022-10-31T05:54:38;6.05;;;2.33;;
11183;SDS011;5648;43.628;22.684;2022-10-31T05:57:04;12.35;;;2.47;;
11183;SDS011;5648;43.628;22.684;2022-10-31T05:59:29;5.05;;;1.98;;
11183;SDS011;5648;43.628;22.684;2022-10-31T06:01:55;6.68;;;2.70;;
11183;SDS011;5648;43.628;22.684;2022-10-31T06:04:20;5.15;;;2.25;;
11183;SDS011;5648;43.628;22.684;2022-10-31T06:06:45;5.28;;;1.73;;
11183;SDS011;5648;43.628;22.684;2022-10-31T06:09:11;2.92;;;2.47;;
11183;SDS011;5648;43.628;22.684;2022-10-31T06:11:36;3.47;;;1.92;;
11183;SDS011;5648;43.628;22.684;2022-10-31T06:14:02;5.55;;;2.30;;
11183;SDS011;5648;43.628;22.684;2022-10-31T06:16:28;9.75;;;2.40;;
11183;SDS011;5648;43.628;22.684;2022-10-31T06:18:53;7.03;;;2.50;;
11183;SDS011;5648;43.628;22.684;2022-10-31T06:21:19;26.38;;;4.18;;
11183;SDS011;5648;43.628;22.684;2022-10-31T06:23:44;7.18;;;2.05;;
11183;SDS011;5648;43.628;22.684;2022-10-31T06:26:10;8.82;;;2.22;;
11183;SDS011;5648;43.628;22.684;2022-10-31T06:28:35;7.70;;;2.72;;
11183;SDS011;5648;43.628;22.684;2022-10-31T06:31:01;4.97;;;2.25;;
11183;SDS011;5648;43.628;22.684;2022-10-31T06:33:26;8.90;;;1.90;;
11183;SDS011;5648;43.628;22.684;2022-10-31T06:35:51;11.20;;;2.65;;
11183;SDS011;5648;43.628;22.684;2022-10-31T06:38:17;6.70;;;2.00;;
11183;SDS011;5648;43.628;22.684;2022-10-31T06:40:42;7.93;;;2.22;;
11183;SDS011;5648;43.628;22.684;2022-10-31T06:43:08;2.55;;;1.60;;
11183;SDS011;5648;43.628;22.684;2022-10-31T06:45:33;6.53;;;1.77;;
11183;SDS011;5648;43.628;22.684;2022-10-31T06:47:59;4.13;;;2.30;;
11183;SDS011;5648;43.628;22.684;2022-10-31T06:50:24;4.93;;;2.70;;
11183;SDS011;5648;43.628;22.684;2022-10-31T06:52:51;7.47;;;2.20;;
11183;SDS011;5648;43.628;22.684;2022-10-31T06:55:20;3.22;;;1.60;;
11183;SDS011;5648;43.628;22.684;2022-10-31T06:57:54;3.83;;;2.28;;
11183;SDS011;5648;43.628;22.684;2022-10-31T07:00:21;16.40;;;3.03;;
11183;SDS011;5648;43.628;22.684;2022-10-31T07:02:55;5.40;;;2.08;;
11183;SDS011;5648;43.628;22.684;2022-10-31T07:05:22;6.22;;;1.95;;
11183;SDS011;5648;43.628;22.684;2022-10-31T07:07:55;4.28;;;2.17;;
11183;SDS011;5648;43.628;22.684;2022-10-31T07:10:25;6.00;;;2.10;;
11183;SDS011;5648;43.628;22.684;2022-10-31T07:12:58;8.20;;;2.15;;
11183;SDS011;5648;43.628;22.684;2022-10-31T07:15:25;9.05;;;2.10;;
11183;SDS011;5648;43.628;22.684;2022-10-31T07:17:52;4.82;;;2.03;;
11183;SDS011;5648;43.628;22.684;2022-10-31T07:20:18;3.35;;;1.80;;
11183;SDS011;5648;43.628;22.684;2022-10-31T07:22:44;5.47;;;1.92;;
11183;SDS011;5648;43.628;22.684;2022-10-31T07:25:10;8.60;;;2.05;;
11183;SDS011;5648;43.628;22.684;2022-10-31T07:27:36;4.95;;;2.05;;
11183;SDS011;5648;43.628;22.684;2022-10-31T07:30:06;3.35;;;1.77;;
11183;SDS011;5648;43.628;22.684;2022-10-31T07:32:42;6.10;;;2.22;;
11183;SDS011;5648;43.628;22.684;2022-10-31T07:35:16;4.15;;;1.88;;
11183;SDS011;5648;43.628;22.684;2022-10-31T07:37:45;5.13;;;1.65;;
11183;SDS011;5648;43.628;22.684;2022-10-31T07:40:11;3.75;;;2.13;;
11183;SDS011;5648;43.628;22.684;2022-10-31T07:42:37;7.40;;;2.55;;
11183;SDS011;5648;43.628;22.684;2022-10-31T07:45:04;6.72;;;2.30;;
11183;SDS011;5648;43.628;22.684;2022-10-31T07:47:38;7.18;;;2.47;;
11183;SDS011;5648;43.628;22.684;2022-10-31T07:50:04;7.78;;;2.15;;
11183;SDS011;5648;43.628;22.684;2022-10-31T07:52:30;2.92;;;1.70;;
11183;SDS011;5648;43.628;22.684;2022-10-31T07:54:55;9.93;;;2.17;;
11183;SDS011;5648;43.628;22.684;2022-10-31T07:57:21;6.53;;;1.92;;
11183;SDS011;5648;43.628;22.684;2022-10-31T07:59:46;6.35;;;1.75;;
11183;SDS011;5648;43.628;22.684;2022-10-31T08:02:12;13.38;;;2.05;;
11183;SDS011;5648;43.628;22.684;2022-10-31T08:04:37;6.22;;;2.10;;
11183;SDS011;5648;43.628;22.684;2022-10-31T08:07:03;6.80;;;2.05;;
11183;SDS011;5648;43.628;22.684;2022-10-31T08:09:28;4.50;;;1.50;;
11183;SDS011;5648;43.628;22.684;2022-10-31T08:11:53;4.47;;;1.77;;
11183;SDS011;5648;43.628;22.684;2022-10-31T08:14:19;4.70;;;1.60;;
11183;SDS011;5648;43.628;22.684;2022-10-31T08:16:44;7.65;;;2.08;;
11183;SDS011;5648;43.628;22.684;2022-10-31T08:19:10;4.70;;;1.73;;
11183;SDS011;5648;43.628;22.684;2022-10-31T08:21:35;3.80;;;2.17;;
11183;SDS011;5648;43.628;22.684;2022-10-31T08:24:01;7.43;;;1.92;;
11183;SDS011;5648;43.628;22.684;2022-10-31T08:26:26;5.07;;;2.30;;
11183;SDS011;5648;43.628;22.684;2022-10-31T08:28:53;5.07;;;1.80;;
11183;SDS011;5648;43.628;22.684;2022-10-31T08:31:20;3.50;;;2.15;;
11183;SDS011;5648;43.628;22.684;2022-10-31T08:33:46;5.90;;;2.08;;
11183;SDS011;5648;43.628;22.684;2022-10-31T08:36:11;5.20;;;2.15;;
11183;SDS011;5648;43.628;22.684;2022-10-31T08:38:37;4.18;;;1.95;;
11183;SDS011;5648;43.628;22.684;2022-10-31T08:41:03;6.78;;;2.05;;
11183;SDS011;5648;43.628;22.684;2022-10-31T08:43:28;6.47;;;1.90;;
11183;SDS011;5648;43.628;22.684;2022-10-31T08:45:53;6.60;;;2.17;;
11183;SDS011;5648;43.628;22.684;2022-10-31T08:48:20;5.80;;;2.20;;
11183;SDS011;5648;43.628;22.684;2022-10-31T08:50:46;5.25;;;1.70;;
11183;SDS011;5648;43.628;22.684;2022-10-31T08:53:13;2.90;;;1.73;;
11183;SDS011;5648;43.628;22.684;2022-10-31T08:55:43;5.78;;;1.63;;
11183;SDS011;5648;43.628;22.684;2022-10-31T08:58:11;7.05;;;1.90;;
11183;SDS011;5648;43.628;22.684;2022-10-31T09:00:39;5.20;;;1.90;;
11183;SDS011;5648;43.628;22.684;2022-10-31T09:05:42;4.43;;;1.50;;
11183;SDS011;5648;43.628;22.684;2022-10-31T09:08:08;8.85;;;1.67;;
11183;SDS011;5648;43.628;22.684;2022-10-31T09:10:35;12.85;;;2.15;;
11183;SDS011;5648;43.628;22.684;2022-10-31T09:13:02;3.53;;;1.50;;
11183;SDS011;5648;43.628;22.684;2022-10-31T09:15:34;15.45;;;2.28;;
11183;SDS011;5648;43.628;22.684;2022-10-31T09:18:03;12.23;;;1.92;;
11183;SDS011;5648;43.628;22.684;2022-10-31T09:20:30;6.57;;;1.70;;
11183;SDS011;5648;43.628;22.684;2022-10-31T09:23:41;5.70;;;2.10;;
11183;SDS011;5648;43.628;22.684;2022-10-31T09:25:47;7.97;;;1.77;;
11183;SDS011;5648;43.628;22.684;2022-10-31T09:28:14;3.45;;;1.88;;
11183;SDS011;5648;43.628;22.684;2022-10-31T09:30:41;2.95;;;1.65;;
11183;SDS011;5648;43.628;22.684;2022-10-31T09:33:09;5.38;;;1.90;;
11183;SDS011;5648;43.628;22.684;2022-10-31T09:35:36;7.45;;;1.85;;
11183;SDS011;5648;43.628;22.684;2022-10-31T09:38:06;5.18;;;1.85;;
11183;SDS011;5648;43.628;22.684;2022-10-31T09:40:40;4.85;;;1.60;;
11183;SDS011;5648;43.628;22.684;2022-10-31T09:51:53;5.13;;;1.83;;
11183;SDS011;5648;43.628;22.684;2022-10-31T09:56:50;5.95;;;2.00;;
11183;SDS011;5648;43.628;22.684;2022-10-31T09:59:36;10.27;;;1.70;;
11183;SDS011;5648;43.628;22.684;2022-10-31T10:02:05;4.70;;;1.65;;
11183;SDS011;5648;43.628;22.684;2022-10-31T10:10:13;2.80;;;1.25;;
11183;SDS011;5648;43.628;22.684;2022-10-31T10:26:01;4.30;;;1.70;;
11183;SDS011;5648;43.628;22.684;2022-10-31T10:28:58;4.97;;;1.80;;
11183;SDS011;5648;43.628;22.684;2022-10-31T10:31:30;4.05;;;1.55;;
11183;SDS011;5648;43.628;22.684;2022-10-31T10:33:59;3.20;;;1.10;;
11183;SDS011;5648;43.628;22.684;2022-10-31T10:39:18;6.47;;;1.50;;
11183;SDS011;5648;43.628;22.684;2022-10-31T10:41:48;2.40;;;1.48;;
11183;SDS011;5648;43.628;22.684;2022-10-31T10:44:33;5.72;;;1.38;;
11183;SDS011;5648;43.628;22.684;2022-10-31T10:47:22;23.15;;;3.28;;
11183;SDS011;5648;43.628;22.684;2022-10-31T10:50:04;3.95;;;1.63;;
11183;SDS011;5648;43.628;22.684;2022-10-31T10:55:36;8.30;;;1.55;;
11183;SDS011;5648;43.628;22.684;2022-10-31T10:58:10;5.10;;;1.63;;
11183;SDS011;5648;43.628;22.684;2022-10-31T11:00:42;4.05;;;1.50;;
11183;SDS011;5648;43.628;22.684;2022-10-31T11:03:11;8.07;;;1.70;;
11183;SDS011;5648;43.628;22.684;2022-10-31T11:08:23;2.58;;;1.20;;
11183;SDS011;5648;43.628;22.684;2022-10-31T11:11:44;5.05;;;1.80;;
11183;SDS011;5648;43.628;22.684;2022-10-31T11:14:02;5.22;;;1.33;;
11183;SDS011;5648;43.628;22.684;2022-10-31T11:19:19;6.57;;;1.75;;
11183;SDS011;5648;43.628;22.684;2022-10-31T11:21:47;3.05;;;1.40;;
11183;SDS011;5648;43.628;22.684;2022-10-31T11:26:41;4.82;;;1.55;;
11183;SDS011;5648;43.628;22.684;2022-10-31T11:29:26;5.45;;;1.77;;
11183;SDS011;5648;43.628;22.684;2022-10-31T11:31:52;2.42;;;1.40;;
11183;SDS011;5648;43.628;22.684;2022-10-31T11:36:47;3.95;;;1.25;;
11183;SDS011;5648;43.628;22.684;2022-10-31T11:39:15;3.80;;;1.40;;
11183;SDS011;5648;43.628;22.684;2022-10-31T11:41:51;4.88;;;1.30;;
11183;SDS011;5648;43.628;22.684;2022-10-31T11:44:18;2.28;;;1.10;;
11183;SDS011;5648;43.628;22.684;2022-10-31T11:46:47;2.40;;;1.77;;
11183;SDS011;5648;43.628;22.684;2022-10-31T11:51:49;4.68;;;1.50;;
11183;SDS011;5648;43.628;22.684;2022-10-31T11:57:21;5.78;;;1.70;;
11183;SDS011;5648;43.628;22.684;2022-10-31T11:59:55;3.53;;;1.25;;
11183;SDS011;5648;43.628;22.684;2022-10-31T12:02:23;3.40;;;1.20;;
11183;SDS011;5648;43.628;22.684;2022-10-31T12:04:51;8.88;;;1.42;;
11183;SDS011;5648;43.628;22.684;2022-10-31T12:07:21;3.47;;;1.05;;
11183;SDS011;5648;43.628;22.684;2022-10-31T12:09:48;4.45;;;1.38;;
11183;SDS011;5648;43.628;22.684;2022-10-31T12:42:45;1.88;;;1.30;;
11183;SDS011;5648;43.628;22.684;2022-10-31T12:59:01;2.38;;;1.38;;
11183;SDS011;5648;43.628;22.684;2022-10-31T13:01:53;8.20;;;1.98;;
11183;SDS011;5648;43.628;22.684;2022-10-31T13:05:41;4.53;;;1.75;;
11183;SDS011;5648;43.628;22.684;2022-10-31T13:07:54;7.43;;;1.40;;
11183;SDS011;5648;43.628;22.684;2022-10-31T13:10:29;3.30;;;1.40;;
11183;SDS011;5648;43.628;22.684;2022-10-31T13:13:24;5.10;;;1.45;;
11183;SDS011;5648;43.628;22.684;2022-10-31T13:15:57;3.38;;;1.40;;
11183;SDS011;5648;43.628;22.684;2022-10-31T13:21:02;3.05;;;1.50;;
11183;SDS011;5648;43.628;22.684;2022-10-31T13:23:33;1.98;;;1.58;;
11183;SDS011;5648;43.628;22.684;2022-10-31T13:26:06;3.40;;;1.55;;
11183;SDS011;5648;43.628;22.684;2022-10-31T13:28:44;20.73;;;3.30;;
11183;SDS011;5648;43.628;22.684;2022-10-31T13:31:13;3.88;;;1.92;;
11183;SDS011;5648;43.628;22.684;2022-10-31T13:33:41;2.92;;;1.70;;
11183;SDS011;5648;43.628;22.684;2022-10-31T13:36:24;3.85;;;1.83;;
11183;SDS011;5648;43.628;22.684;2022-10-31T13:38:59;6.25;;;1.95;;
11183;SDS011;5648;43.628;22.684;2022-10-31T13:44:47;4.68;;;1.88;;
11183;SDS011;5648;43.628;22.684;2022-10-31T13:47:22;4.90;;;1.80;;
11183;SDS011;5648;43.628;22.684;2022-10-31T13:50:03;5.90;;;2.03;;
11183;SDS011;5648;43.628;22.684;2022-10-31T13:52:43;3.70;;;1.90;;
11183;SDS011;5648;43.628;22.684;2022-10-31T13:55:34;2.42;;;1.52;;
11183;SDS011;5648;43.628;22.684;2022-10-31T13:58:19;3.45;;;1.92;;
11183;SDS011;5648;43.628;22.684;2022-10-31T14:00:45;6.20;;;1.95;;
11183;SDS011;5648;43.628;22.684;2022-10-31T14:03:18;4.38;;;1.92;;
11183;SDS011;5648;43.628;22.684;2022-10-31T14:05:51;3.33;;;2.08;;
11183;SDS011;5648;43.628;22.684;2022-10-31T14:08:19;5.47;;;1.60;;
11183;SDS011;5648;43.628;22.684;2022-10-31T14:10:48;8.35;;;2.10;;
11183;SDS011;5648;43.628;22.684;2022-10-31T14:13:23;10.55;;;2.00;;
11183;SDS011;5648;43.628;22.684;2022-10-31T14:18:35;7.57;;;2.78;;
11183;SDS011;5648;43.628;22.684;2022-10-31T14:23:51;8.18;;;2.63;;
11183;SDS011;5648;43.628;22.684;2022-10-31T14:26:19;6.82;;;3.03;;
11183;SDS011;5648;43.628;22.684;2022-10-31T14:31:43;4.95;;;2.70;;
11183;SDS011;5648;43.628;22.684;2022-10-31T14:39:41;5.03;;;2.60;;
11183;SDS011;5648;43.628;22.684;2022-10-31T14:50:32;9.68;;;4.15;;
11183;SDS011;5648;43.628;22.684;2022-10-31T14:53:31;6.82;;;4.03;;
11183;SDS011;5648;43.628;22.684;2022-10-31T14:56:00;7.93;;;3.00;;
11183;SDS011;5648;43.628;22.684;2022-10-31T14:58:35;6.85;;;5.00;;
11183;SDS011;5648;43.628;22.684;2022-10-31T15:01:05;13.10;;;6.28;;
11183;SDS011;5648;43.628;22.684;2022-10-31T15:03:33;5.72;;;2.88;;
11183;SDS011;5648;43.628;22.684;2022-10-31T15:06:11;3.22;;;2.13;;
11183;SDS011;5648;43.628;22.684;2022-10-31T15:08:46;7.43;;;2.67;;
11183;SDS011;5648;43.628;22.684;2022-10-31T15:11:19;4.53;;;2.90;;
11183;SDS011;5648;43.628;22.684;2022-10-31T15:13:52;7.90;;;3.10;;
11183;SDS011;5648;43.628;22.684;2022-10-31T15:16:21;4.05;;;2.90;;
11183;SDS011;5648;43.628;22.684;2022-10-31T15:19:07;4.45;;;2.90;;
11183;SDS011;5648;43.628;22.684;2022-10-31T15:21:39;7.47;;;2.42;;
11183;SDS011;5648;43.628;22.684;2022-10-31T15:24:10;5.47;;;2.53;;
11183;SDS011;5648;43.628;22.684;2022-10-31T15:26:39;4.80;;;2.20;;
11183;SDS011;5648;43.628;22.684;2022-10-31T15:29:12;4.72;;;2.40;;
11183;SDS011;5648;43.628;22.684;2022-10-31T15:32:12;5.25;;;2.28;;
11183;SDS011;5648;43.628;22.684;2022-10-31T15:34:36;4.47;;;2.45;;
11183;SDS011;5648;43.628;22.684;2022-10-31T15:37:04;4.57;;;2.35;;
11183;SDS011;5648;43.628;22.684;2022-10-31T15:39:35;10.20;;;2.90;;
11183;SDS011;5648;43.628;22.684;2022-10-31T15:42:01;4.05;;;2.40;;
11183;SDS011;5648;43.628;22.684;2022-10-31T15:44:31;7.47;;;2.70;;
11183;SDS011;5648;43.628;22.684;2022-10-31T15:47:03;6.32;;;2.78;;
11183;SDS011;5648;43.628;22.684;2022-10-31T15:51:57;2.97;;;2.38;;
11183;SDS011;5648;43.628;22.684;2022-10-31T15:54:26;4.60;;;2.65;;
11183;SDS011;5648;43.628;22.684;2022-10-31T15:56:53;3.42;;;2.90;;
11183;SDS011;5648;43.628;22.684;2022-10-31T15:59:20;7.97;;;3.13;;
11183;SDS011;5648;43.628;22.684;2022-10-31T16:02:02;8.60;;;3.60;;
11183;SDS011;5648;43.628;22.684;2022-10-31T16:04:34;5.80;;;3.13;;
11183;SDS011;5648;43.628;22.684;2022-10-31T16:07:21;6.07;;;3.50;;
11183;SDS011;5648;43.628;22.684;2022-10-31T16:09:51;7.18;;;3.30;;
11183;SDS011;5648;43.628;22.684;2022-10-31T16:12:24;5.38;;;3.28;;
11183;SDS011;5648;43.628;22.684;2022-10-31T16:14:55;4.75;;;3.75;;
11183;SDS011;5648;43.628;22.684;2022-10-31T16:17:22;5.70;;;3.55;;
11183;SDS011;5648;43.628;22.684;2022-10-31T16:19:52;5.47;;;3.55;;
11183;SDS011;5648;43.628;22.684;2022-10-31T16:22:31;5.35;;;3.72;;
11183;SDS011;5648;43.628;22.684;2022-10-31T16:25:15;6.85;;;4.20;;
11183;SDS011;5648;43.628;22.684;2022-10-31T16:27:50;8.05;;;4.25;;
11183;SDS011;5648;43.628;22.684;2022-10-31T16:33:05;7.57;;;4.40;;
11183;SDS011;5648;43.628;22.684;2022-10-31T16:35:45;15.50;;;4.78;;
11183;SDS011;5648;43.628;22.684;2022-10-31T16:38:10;6.10;;;4.38;;
11183;SDS011;5648;43.628;22.684;2022-10-31T16:40:37;8.73;;;4.50;;
11183;SDS011;5648;43.628;22.684;2022-10-31T16:43:03;9.73;;;5.05;;
11183;SDS011;5648;43.628;22.684;2022-10-31T16:45:29;8.25;;;5.13;;
11183;SDS011;5648;43.628;22.684;2022-10-31T16:48:06;5.47;;;4.97;;
11183;SDS011;5648;43.628;22.684;2022-10-31T16:50:36;11.98;;;5.03;;
11183;SDS011;5648;43.628;22.684;2022-10-31T16:53:02;7.45;;;4.53;;
11183;SDS011;5648;43.628;22.684;2022-10-31T16:55:29;7.43;;;4.60;;
11183;SDS011;5648;43.628;22.684;2022-10-31T16:57:55;5.43;;;4.60;;
11183;SDS011;5648;43.628;22.684;2022-10-31T17:00:22;10.57;;;4.38;;
11183;SDS011;5648;43.628;22.684;2022-10-31T17:02:51;6.72;;;4.18;;
11183;SDS011;5648;43.628;22.684;2022-10-31T17:05:18;7.75;;;5.25;;
11183;SDS011;5648;43.628;22.684;2022-10-31T17:07:45;14.50;;;5.40;;
11183;SDS011;5648;43.628;22.684;2022-10-31T17:10:11;6.95;;;4.85;;
11183;SDS011;5648;43.628;22.684;2022-10-31T17:12:39;5.00;;;4.53;;
11183;SDS011;5648;43.628;22.684;2022-10-31T17:15:10;7.68;;;4.90;;
11183;SDS011;5648;43.628;22.684;2022-10-31T17:17:47;6.75;;;5.07;;
11183;SDS011;5648;43.628;22.684;2022-10-31T17:20:17;7.07;;;4.70;;
11183;SDS011;5648;43.628;22.684;2022-10-31T17:22:47;7.85;;;4.38;;
11183;SDS011;5648;43.628;22.684;2022-10-31T17:25:14;5.75;;;4.65;;
11183;SDS011;5648;43.628;22.684;2022-10-31T17:27:42;7.60;;;5.22;;
11183;SDS011;5648;43.628;22.684;2022-10-31T17:30:08;7.30;;;4.60;;
11183;SDS011;5648;43.628;22.684;2022-10-31T17:32:37;7.85;;;4.63;;
11183;SDS011;5648;43.628;22.684;2022-10-31T17:35:02;7.50;;;4.57;;
11183;SDS011;5648;43.628;22.684;2022-10-31T17:37:28;6.47;;;4.53;;
11183;SDS011;5648;43.628;22.684;2022-10-31T17:39:53;5.82;;;4.82;;
11183;SDS011;5648;43.628;22.684;2022-10-31T17:42:18;4.63;;;3.90;;
11183;SDS011;5648;43.628;22.684;2022-10-31T17:44:44;9.80;;;4.53;;
11183;SDS011;5648;43.628;22.684;2022-10-31T17:47:10;5.80;;;4.22;;
11183;SDS011;5648;43.628;22.684;2022-10-31T17:49:36;8.05;;;5.20;;